Time;durP1;ratioP1;P1;durP2;ratioP2;P2;SDS_P1;SDS_P2;PMS_P1;PMS_P2;Temp;Humidity;BMP_temperature;BMP_pressure;BME280_temperature;BME280_humidity;BME280_pressure;Samples;Min_cycle;Max_cycle;Signal;HPM_P1;HPM_P2
2023/05/17 00:00:22;;;;;;;17.88;10.57;;;;;;;;;;5057167;28;20308;-84
2023/05/17 00:02:48;;;;;;;17.45;11.23;;;;;;;;;;5060380;28;20029;-84
2023/05/17 00:05:14;;;;;;;15.05;11.23;;;;;;;;;;5059052;28;20398;-84
2023/05/17 00:07:40;;;;;;;19.33;11.75;;;;;;;;;;5058778;28;20415;-83
2023/05/17 00:10:07;;;;;;;16.02;11.98;;;;;;;;;;5059978;28;20469;-82
2023/05/17 00:12:33;;;;;;;15.10;11.35;;;;;;;;;;5059957;28;20111;-83
2023/05/17 00:14:59;;;;;;;17.75;12.63;;;;;;;;;;5060005;28;20033;-83
2023/05/17 00:17:25;;;;;;;17.10;12.20;;;;;;;;;;5060147;28;20029;-83
2023/05/17 00:19:51;;;;;;;21.48;12.52;;;;;;;;;;5059768;28;20028;-83
2023/05/17 00:22:17;;;;;;;20.75;13.27;;;;;;;;;;5059770;28;20072;-83
2023/05/17 00:24:43;;;;;;;17.52;12.27;;;;;;;;;;5059838;28;20063;-83
2023/05/17 00:27:09;;;;;;;16.23;11.88;;;;;;;;;;5058691;28;20036;-83
2023/05/17 00:29:35;;;;;;;17.13;11.70;;;;;;;;;;5059537;28;20032;-83
2023/05/17 00:32:01;;;;;;;15.52;12.35;;;;;;;;;;5061063;28;20035;-82
2023/05/17 00:34:27;;;;;;;13.50;11.85;;;;;;;;;;5066448;28;20084;-83
2023/05/17 00:36:53;;;;;;;18.13;12.70;;;;;;;;;;5059369;28;20036;-83
2023/05/17 00:39:19;;;;;;;15.68;12.85;;;;;;;;;;5059238;28;20029;-81
2023/05/17 00:41:45;;;;;;;16.92;12.45;;;;;;;;;;5058485;28;20029;-84
2023/05/17 00:44:11;;;;;;;17.48;12.77;;;;;;;;;;5059422;28;20055;-84
2023/05/17 00:46:37;;;;;;;17.75;13.23;;;;;;;;;;5079186;28;20095;-84
2023/05/17 00:49:03;;;;;;;17.77;12.85;;;;;;;;;;5079070;28;20028;-84
2023/05/17 00:51:30;;;;;;;20.25;13.93;;;;;;;;;;5079782;28;20024;-84
2023/05/17 00:53:56;;;;;;;20.42;14.40;;;;;;;;;;5079673;28;20041;-84
2023/05/17 00:56:23;;;;;;;17.60;13.95;;;;;;;;;;5079662;28;20032;-84
2023/05/17 00:58:49;;;;;;;18.23;13.70;;;;;;;;;;5077975;28;20044;-82
2023/05/17 01:01:15;;;;;;;15.23;12.75;;;;;;;;;;5079170;28;20020;-84
2023/05/17 01:03:42;;;;;;;19.33;13.63;;;;;;;;;;5077682;28;20060;-82
2023/05/17 01:06:08;;;;;;;18.65;13.32;;;;;;;;;;5064754;28;20025;-82
2023/05/17 01:08:35;;;;;;;17.27;13.20;;;;;;;;;;5058332;28;20027;-82
2023/05/17 01:11:19;;;;;;;20.92;13.73;;;;;;;;;;5058807;28;20105;-82
2023/05/17 01:13:56;;;;;;;19.08;13.27;;;;;;;;;;5057475;28;20040;-82
2023/05/17 01:16:27;;;;;;;19.73;13.75;;;;;;;;;;5059158;28;20029;-82
2023/05/17 01:19:00;;;;;;;14.32;12.77;;;;;;;;;;5058689;28;20021;-82
2023/05/17 01:24:52;;;;;;;18.77;14.32;;;;;;;;;;5058911;28;20048;-85
2023/05/17 01:27:19;;;;;;;18.77;14.48;;;;;;;;;;5058994;28;20033;-84
2023/05/17 01:29:47;;;;;;;17.70;13.52;;;;;;;;;;5057909;28;20024;-84
2023/05/17 01:32:13;;;;;;;17.60;13.55;;;;;;;;;;5073199;28;20452;-84
2023/05/17 01:34:41;;;;;;;24.05;13.80;;;;;;;;;;5078091;28;20311;-84
2023/05/17 01:37:07;;;;;;;16.02;12.98;;;;;;;;;;5077139;28;20059;-84
2023/05/17 01:39:33;;;;;;;23.15;14.45;;;;;;;;;;5077277;28;20111;-83
2023/05/17 01:42:08;;;;;;;17.27;14.07;;;;;;;;;;5077226;28;20035;-84
2023/05/17 01:44:34;;;;;;;19.88;14.02;;;;;;;;;;5076929;28;20123;-84
2023/05/17 01:47:05;;;;;;;17.95;13.00;;;;;;;;;;5078620;28;20048;-84
2023/05/17 01:49:34;;;;;;;20.13;13.10;;;;;;;;;;5078426;28;20032;-84
2023/05/17 01:55:34;;;;;;;20.65;13.13;;;;;;;;;;5078374;28;20454;-83
2023/05/17 01:58:01;;;;;;;21.50;13.68;;;;;;;;;;5077937;28;20036;-83
2023/05/17 02:00:29;;;;;;;18.50;13.82;;;;;;;;;;5077871;28;20048;-83
2023/05/17 02:02:55;;;;;;;18.73;13.18;;;;;;;;;;5077803;28;20370;-83
2023/05/17 02:05:21;;;;;;;17.08;13.15;;;;;;;;;;5077659;28;20090;-83
2023/05/17 02:07:47;;;;;;;17.45;13.23;;;;;;;;;;5077744;28;20028;-84
2023/05/17 02:10:13;;;;;;;18.77;12.90;;;;;;;;;;5077392;28;20013;-82
2023/05/17 02:12:39;;;;;;;17.10;12.68;;;;;;;;;;5077698;28;20103;-83
2023/05/17 02:15:07;;;;;;;17.98;12.70;;;;;;;;;;5078084;28;20315;-83
2023/05/17 02:17:33;;;;;;;19.77;12.60;;;;;;;;;;5077733;28;20028;-83
2023/05/17 02:19:59;;;;;;;16.60;12.70;;;;;;;;;;5077516;28;20044;-82
2023/05/17 02:22:25;;;;;;;17.30;11.98;;;;;;;;;;5076297;28;20103;-82
2023/05/17 02:24:51;;;;;;;20.52;13.60;;;;;;;;;;5068305;28;20100;-83
2023/05/17 02:27:17;;;;;;;17.33;13.40;;;;;;;;;;5057592;28;20075;-83
2023/05/17 02:29:43;;;;;;;18.88;13.10;;;;;;;;;;5056516;28;20319;-84
2023/05/17 02:32:09;;;;;;;18.83;13.63;;;;;;;;;;5057514;28;20407;-83
2023/05/17 02:34:35;;;;;;;16.95;14.10;;;;;;;;;;5057446;28;20438;-84
2023/05/17 02:37:02;;;;;;;18.40;15.02;;;;;;;;;;5057377;28;20435;-83
2023/05/17 02:39:28;;;;;;;16.77;14.13;;;;;;;;;;5056462;28;20094;-83
2023/05/17 02:41:54;;;;;;;19.98;12.57;;;;;;;;;;5056355;28;20326;-83
2023/05/17 02:44:20;;;;;;;20.98;12.88;;;;;;;;;;5057414;28;20339;-83
2023/05/17 02:46:46;;;;;;;22.05;12.82;;;;;;;;;;5057606;28;20342;-84
2023/05/17 02:49:12;;;;;;;20.85;14.05;;;;;;;;;;5059718;28;20058;-84
2023/05/17 02:51:38;;;;;;;17.75;12.10;;;;;;;;;;5077535;28;20056;-85
2023/05/17 02:54:04;;;;;;;24.75;12.52;;;;;;;;;;5077809;28;20074;-84
2023/05/17 02:56:30;;;;;;;23.65;12.65;;;;;;;;;;5077696;28;20029;-84
2023/05/17 02:58:56;;;;;;;24.85;12.10;;;;;;;;;;5077449;28;20031;-84
2023/05/17 03:01:22;;;;;;;16.35;10.90;;;;;;;;;;5076900;28;20029;-85
2023/05/17 03:03:48;;;;;;;22.63;9.85;;;;;;;;;;5076955;28;20040;-83
2023/05/17 03:06:14;;;;;;;15.68;6.68;;;;;;;;;;5077151;28;20017;-84
2023/05/17 03:08:40;;;;;;;15.75;6.80;;;;;;;;;;5076839;28;21664;-84
2023/05/17 03:11:07;;;;;;;14.85;6.07;;;;;;;;;;5077609;28;20040;-83
2023/05/17 03:13:33;;;;;;;16.83;5.63;;;;;;;;;;5076045;28;20072;-84
2023/05/17 03:15:59;;;;;;;16.00;4.70;;;;;;;;;;5076846;28;20063;-85
2023/05/17 03:18:25;;;;;;;10.85;3.92;;;;;;;;;;5077346;28;20024;-84
2023/05/17 03:20:51;;;;;;;17.08;3.85;;;;;;;;;;5069432;28;20020;-83
2023/05/17 03:23:55;;;;;;;12.85;3.90;;;;;;;;;;5037267;28;20060;-83
2023/05/17 03:26:22;;;;;;;13.77;3.80;;;;;;;;;;5037728;28;20025;-83
2023/05/17 03:28:49;;;;;;;9.60;3.95;;;;;;;;;;5055915;28;20447;-83
2023/05/17 03:31:16;;;;;;;10.85;4.28;;;;;;;;;;5051741;28;20109;-82
2023/05/17 03:33:42;;;;;;;13.45;4.13;;;;;;;;;;5036607;28;20029;-81
2023/05/17 03:36:08;;;;;;;11.57;4.35;;;;;;;;;;5048542;28;20025;-82
2023/05/17 03:38:53;;;;;;;12.88;4.07;;;;;;;;;;5059414;28;20044;-83
2023/05/17 03:41:20;;;;;;;13.35;3.67;;;;;;;;;;5060822;28;20025;-83
2023/05/17 03:43:46;;;;;;;8.30;2.85;;;;;;;;;;5058998;28;20048;-83
2023/05/17 03:46:13;;;;;;;6.38;2.83;;;;;;;;;;5060500;28;20123;-83
2023/05/17 03:48:39;;;;;;;7.07;2.58;;;;;;;;;;5068181;28;20017;-83
2023/05/17 03:51:05;;;;;;;11.60;2.92;;;;;;;;;;5063611;28;20018;-86
2023/05/17 03:56:35;;;;;;;9.10;2.70;;;;;;;;;;5040731;28;20043;-83
2023/05/17 03:59:01;;;;;;;7.50;2.90;;;;;;;;;;5040327;28;20061;-83
2023/05/17 04:01:27;;;;;;;8.50;2.80;;;;;;;;;;5040573;28;20025;-84
2023/05/17 04:03:53;;;;;;;8.95;3.20;;;;;;;;;;5044247;28;20406;-84
2023/05/17 04:06:19;;;;;;;8.57;3.40;;;;;;;;;;5079245;28;20056;-84
2023/05/17 04:08:45;;;;;;;11.98;3.40;;;;;;;;;;5077989;28;20025;-85
2023/05/17 04:11:14;;;;;;;9.52;2.58;;;;;;;;;;5075047;28;20028;-85
2023/05/17 04:13:40;;;;;;;7.28;2.70;;;;;;;;;;5078747;28;20044;-85
2023/05/17 04:16:07;;;;;;;7.63;2.55;;;;;;;;;;5080302;28;20429;-85
2023/05/17 04:18:37;;;;;;;5.55;2.20;;;;;;;;;;5080547;28;20357;-85
2023/05/17 04:21:03;;;;;;;9.82;3.38;;;;;;;;;;5079213;28;20116;-86
2023/05/17 04:23:29;;;;;;;9.38;2.72;;;;;;;;;;5078706;28;20040;-86
2023/05/17 04:25:57;;;;;;;10.05;2.50;;;;;;;;;;5079091;28;20036;-86
2023/05/17 04:28:23;;;;;;;10.68;2.47;;;;;;;;;;5076923;28;20016;-86
2023/05/17 04:30:49;;;;;;;10.82;2.30;;;;;;;;;;5060211;28;20075;-86
2023/05/17 04:33:16;;;;;;;8.40;2.67;;;;;;;;;;5059803;28;20029;-86
2023/05/17 04:35:42;;;;;;;11.90;3.65;;;;;;;;;;5060185;28;20025;-87
2023/05/17 04:38:09;;;;;;;12.35;4.05;;;;;;;;;;5058969;28;20025;-86
2023/05/17 04:40:35;;;;;;;10.32;2.47;;;;;;;;;;5059938;28;20100;-86
2023/05/17 04:43:01;;;;;;;10.88;2.47;;;;;;;;;;5059588;28;20051;-87
2023/05/17 04:45:27;;;;;;;10.75;4.45;;;;;;;;;;5059938;28;20032;-86
2023/05/17 04:47:54;;;;;;;11.65;3.35;;;;;;;;;;5059842;28;20066;-83
2023/05/17 04:50:20;;;;;;;12.27;2.85;;;;;;;;;;5059431;28;20025;-84
2023/05/17 04:52:47;;;;;;;9.30;2.20;;;;;;;;;;5059649;28;20025;-83
2023/05/17 04:55:13;;;;;;;8.13;2.63;;;;;;;;;;5059253;28;20051;-84
2023/05/17 04:57:39;;;;;;;9.65;2.28;;;;;;;;;;5059401;28;20037;-83
2023/05/17 05:00:06;;;;;;;8.57;2.72;;;;;;;;;;5058101;28;20029;-84
2023/05/17 05:02:32;;;;;;;18.83;4.38;;;;;;;;;;5057916;28;20423;-84
2023/05/17 05:04:58;;;;;;;9.80;2.67;;;;;;;;;;5059106;28;20061;-84
2023/05/17 05:07:24;;;;;;;5.68;2.50;;;;;;;;;;5061074;28;20017;-83
2023/05/17 05:09:50;;;;;;;6.40;2.00;;;;;;;;;;5078888;28;20036;-84
2023/05/17 05:12:17;;;;;;;10.95;3.17;;;;;;;;;;5079039;28;20046;-84
2023/05/17 05:14:43;;;;;;;9.52;3.40;;;;;;;;;;5079033;28;20066;-83
2023/05/17 05:17:09;;;;;;;6.40;2.00;;;;;;;;;;5077808;28;20334;-82
2023/05/17 05:19:36;;;;;;;8.63;2.65;;;;;;;;;;5077611;28;20032;-83
2023/05/17 05:22:17;;;;;;;9.10;2.97;;;;;;;;;;5078742;28;20028;-83
2023/05/17 05:24:43;;;;;;;27.25;8.20;;;;;;;;;;5077552;28;20028;-82
2023/05/17 05:27:09;;;;;;;38.67;11.98;;;;;;;;;;5077094;28;20047;-83
2023/05/17 05:29:35;;;;;;;25.48;7.75;;;;;;;;;;5078683;28;20419;-83
2023/05/17 05:32:01;;;;;;;14.95;4.40;;;;;;;;;;5078732;28;20029;-82
2023/05/17 05:34:28;;;;;;;9.05;2.33;;;;;;;;;;5078015;28;20044;-84
2023/05/17 05:36:54;;;;;;;7.13;1.90;;;;;;;;;;5066682;28;20037;-85
2023/05/17 05:39:20;;;;;;;9.68;2.28;;;;;;;;;;5057578;28;20025;-85
2023/05/17 05:41:46;;;;;;;7.55;1.63;;;;;;;;;;5058784;28;20021;-83
2023/05/17 05:55:22;;;;;;;7.70;1.80;;;;;;;;;;5136235;27;20368;-87
2023/05/17 05:57:48;;;;;;;7.70;1.83;;;;;;;;;;5135689;28;20023;-86
2023/05/17 06:03:18;;;;;;;8.73;1.88;;;;;;;;;;5115351;28;20526;-86
2023/05/17 06:05:44;;;;;;;11.00;2.30;;;;;;;;;;5097340;28;20097;-85
2023/05/17 06:08:10;;;;;;;7.72;2.20;;;;;;;;;;5097176;28;20329;-85
2023/05/17 06:10:36;;;;;;;11.30;2.67;;;;;;;;;;5097975;28;20032;-85
2023/05/17 06:13:02;;;;;;;12.15;5.00;;;;;;;;;;5135457;28;20446;-84
2023/05/17 06:15:47;;;;;;;15.10;3.63;;;;;;;;;;5135318;28;20020;-84
2023/05/17 06:18:13;;;;;;;8.30;2.70;;;;;;;;;;5135434;28;20026;-84
2023/05/17 06:20:39;;;;;;;8.63;2.88;;;;;;;;;;5135032;28;20367;-83
2023/05/17 06:23:05;;;;;;;6.50;2.72;;;;;;;;;;5135139;28;20092;-84
2023/05/17 06:25:31;;;;;;;7.63;2.60;;;;;;;;;;5135502;28;20023;-83
2023/05/17 06:27:57;;;;;;;10.82;2.90;;;;;;;;;;5135100;28;20036;-84
2023/05/17 06:30:23;;;;;;;11.10;3.42;;;;;;;;;;5134903;28;20432;-84
2023/05/17 06:32:49;;;;;;;7.25;2.63;;;;;;;;;;5134779;28;20020;-84
2023/05/17 06:35:15;;;;;;;11.23;2.92;;;;;;;;;;5134880;28;20469;-84
2023/05/17 06:37:41;;;;;;;7.57;2.22;;;;;;;;;;5134729;28;20027;-84
2023/05/17 06:40:09;;;;;;;9.25;1.70;;;;;;;;;;5116321;28;20118;-85
2023/05/17 06:42:35;;;;;;;7.35;2.10;;;;;;;;;;5135038;28;20030;-85
2023/05/17 06:45:38;;;;;;;8.75;2.15;;;;;;;;;;5116839;28;20026;-85
2023/05/17 06:48:04;;;;;;;7.35;1.95;;;;;;;;;;5134720;28;20031;-86
2023/05/17 06:50:30;;;;;;;12.63;3.03;;;;;;;;;;5134265;28;20026;-86
2023/05/17 06:52:56;;;;;;;6.32;2.00;;;;;;;;;;5127210;28;20036;-85
2023/05/17 06:55:22;;;;;;;6.25;1.80;;;;;;;;;;5122738;28;20027;-86
2023/05/17 06:57:49;;;;;;;6.78;1.95;;;;;;;;;;5112771;28;20024;-85
2023/05/17 07:00:15;;;;;;;6.05;1.88;;;;;;;;;;5099576;28;20043;-85
2023/05/17 07:02:41;;;;;;;7.60;2.35;;;;;;;;;;5100417;28;20050;-85
2023/05/17 07:05:07;;;;;;;7.40;1.75;;;;;;;;;;5099688;28;20024;-86
2023/05/17 07:07:33;;;;;;;9.77;2.78;;;;;;;;;;5101488;28;20032;-82
2023/05/17 07:09:59;;;;;;;9.13;3.08;;;;;;;;;;5117729;28;20102;-87
2023/05/17 07:12:25;;;;;;;6.82;2.20;;;;;;;;;;5113455;28;20020;-84
2023/05/17 07:14:51;;;;;;;9.02;2.33;;;;;;;;;;5112614;28;20051;-82
2023/05/17 07:17:17;;;;;;;8.05;2.42;;;;;;;;;;5119953;28;20496;-82
2023/05/17 07:19:43;;;;;;;8.52;3.22;;;;;;;;;;5120154;28;20409;-83
2023/05/17 07:22:10;;;;;;;7.72;1.98;;;;;;;;;;5120212;28;20347;-82
2023/05/17 07:24:36;;;;;;;6.60;2.17;;;;;;;;;;5119786;28;20024;-83
2023/05/17 07:27:02;;;;;;;9.50;2.40;;;;;;;;;;5119052;28;20023;-82
2023/05/17 07:29:28;;;;;;;6.65;2.35;;;;;;;;;;5119929;28;20020;-83
2023/05/17 07:31:54;;;;;;;6.88;2.10;;;;;;;;;;5119751;28;20047;-83
2023/05/17 07:34:20;;;;;;;6.82;2.28;;;;;;;;;;5120253;28;20020;-83
2023/05/17 07:36:46;;;;;;;9.07;2.40;;;;;;;;;;5120229;28;20032;-83
2023/05/17 07:39:12;;;;;;;7.43;1.80;;;;;;;;;;5120059;28;20106;-83
2023/05/17 07:41:38;;;;;;;7.90;2.13;;;;;;;;;;5119927;28;20023;-83
2023/05/17 07:44:04;;;;;;;9.10;2.47;;;;;;;;;;5120104;28;20316;-83
2023/05/17 07:46:30;;;;;;;8.40;2.83;;;;;;;;;;5119709;28;20416;-84
2023/05/17 07:48:56;;;;;;;8.57;2.17;;;;;;;;;;5114036;28;20028;-82
2023/05/17 07:51:23;;;;;;;10.80;2.67;;;;;;;;;;5119926;28;20050;-84
2023/05/17 07:53:49;;;;;;;6.88;2.30;;;;;;;;;;5118580;28;20052;-85
2023/05/17 07:56:15;;;;;;;7.97;2.08;;;;;;;;;;5118497;28;20341;-84
2023/05/17 07:58:41;;;;;;;5.95;2.33;;;;;;;;;;5114894;28;20032;-86
2023/05/17 08:01:08;;;;;;;5.60;2.00;;;;;;;;;;5119680;28;20431;-90
2023/05/17 08:03:35;;;;;;;7.25;2.13;;;;;;;;;;5111711;28;20027;-84
2023/05/17 08:06:01;;;;;;;8.00;2.28;;;;;;;;;;5099302;28;20024;-83
2023/05/17 08:08:27;;;;;;;10.70;2.45;;;;;;;;;;5109264;28;20016;-82
2023/05/17 08:10:53;;;;;;;6.32;1.88;;;;;;;;;;5099902;28;20454;-82
2023/05/17 08:13:19;;;;;;;8.32;2.13;;;;;;;;;;5105518;28;20032;-89
2023/05/17 08:18:49;;;;;;;9.15;2.40;;;;;;;;;;5127379;27;20115;-88
2023/05/17 08:21:15;;;;;;;8.02;2.00;;;;;;;;;;5118280;28;20137;-86
2023/05/17 08:23:41;;;;;;;7.80;2.10;;;;;;;;;;5118246;28;20059;-87
2023/05/17 08:26:07;;;;;;;7.30;1.90;;;;;;;;;;5119221;28;20024;-86
2023/05/17 08:28:33;;;;;;;8.27;2.00;;;;;;;;;;5119559;28;20022;-86
2023/05/17 08:31:00;;;;;;;8.63;2.47;;;;;;;;;;5119267;28;20065;-86
2023/05/17 08:33:26;;;;;;;8.18;2.38;;;;;;;;;;5119428;28;20023;-88
2023/05/17 08:35:54;;;;;;;6.20;1.80;;;;;;;;;;5114417;28;20027;-87
2023/05/17 08:38:20;;;;;;;7.90;1.92;;;;;;;;;;5119199;28;20038;-91
2023/05/17 08:40:58;;;;;;;8.85;2.70;;;;;;;;;;5119137;28;20329;-89
2023/05/17 08:43:25;;;;;;;6.38;1.90;;;;;;;;;;5102745;28;20048;-91
2023/05/17 08:45:51;;;;;;;7.25;1.90;;;;;;;;;;5110092;28;20023;-92
2023/05/17 08:48:21;;;;;;;4.80;2.00;;;;;;;;;;5119259;28;20028;-91
2023/05/17 08:50:49;;;;;;;4.93;1.70;;;;;;;;;;5118142;28;20099;-88
2023/05/17 08:53:16;;;;;;;6.57;1.92;;;;;;;;;;5111487;28;20067;-87
2023/05/17 08:55:44;;;;;;;7.38;2.10;;;;;;;;;;5106566;28;20051;-90
2023/05/17 08:58:10;;;;;;;6.57;2.45;;;;;;;;;;5105705;28;20028;-89
2023/05/17 09:00:37;;;;;;;7.38;2.05;;;;;;;;;;5113345;28;20106;-89
2023/05/17 09:03:04;;;;;;;5.15;1.88;;;;;;;;;;5097185;28;20028;-89
2023/05/17 09:05:31;;;;;;;4.68;1.60;;;;;;;;;;5098071;28;20028;-89
2023/05/17 09:07:57;;;;;;;6.78;1.60;;;;;;;;;;5098184;28;20043;-89
2023/05/17 09:10:23;;;;;;;6.40;2.10;;;;;;;;;;5119037;27;20026;-89
2023/05/17 09:12:49;;;;;;;6.05;1.80;;;;;;;;;;5139022;27;20027;-90
2023/05/17 09:15:19;;;;;;;7.03;1.90;;;;;;;;;;5139182;27;20023;-89
2023/05/17 09:17:52;;;;;;;5.78;2.15;;;;;;;;;;5138393;27;20019;-88
2023/05/17 09:20:35;;;;;;;6.82;2.20;;;;;;;;;;5138076;27;20048;-90
2023/05/17 09:23:01;;;;;;;7.07;2.25;;;;;;;;;;5138639;27;20031;-90
2023/05/17 09:25:28;;;;;;;5.55;2.00;;;;;;;;;;5138017;27;20338;-90
2023/05/17 09:27:58;;;;;;;10.30;2.50;;;;;;;;;;5138830;27;20019;-85
2023/05/17 09:30:28;;;;;;;9.85;3.15;;;;;;;;;;5138955;27;20084;-86
2023/05/17 09:32:54;;;;;;;6.35;2.10;;;;;;;;;;5138776;27;20425;-86
2023/05/17 09:35:27;;;;;;;6.80;1.92;;;;;;;;;;5138793;27;20020;-86
2023/05/17 09:37:53;;;;;;;7.28;1.77;;;;;;;;;;5138672;27;20023;-86
2023/05/17 09:40:24;;;;;;;5.95;1.80;;;;;;;;;;5137083;27;20031;-86
2023/05/17 09:42:51;;;;;;;6.72;2.05;;;;;;;;;;5138872;27;20019;-86
2023/05/17 09:45:23;;;;;;;8.23;1.90;;;;;;;;;;5138666;28;20030;-86
2023/05/17 09:47:50;;;;;;;7.13;2.05;;;;;;;;;;5138572;27;20060;-75
2023/05/17 09:50:19;;;;;;;6.60;2.88;;;;;;;;;;5138088;27;20015;-80
2023/05/17 09:52:45;;;;;;;15.00;2.97;;;;;;;;;;5138065;28;20031;-76
2023/05/17 09:55:12;;;;;;;9.73;2.30;;;;;;;;;;5137670;28;20040;-81
2023/05/17 09:57:38;;;;;;;8.38;2.42;;;;;;;;;;5137888;28;20024;-75
2023/05/17 10:00:10;;;;;;;5.65;2.30;;;;;;;;;;5138075;28;20019;-79
2023/05/17 10:02:38;;;;;;;11.63;2.45;;;;;;;;;;5138417;27;20015;-89
2023/05/17 10:05:04;;;;;;;7.15;2.45;;;;;;;;;;5138501;27;20076;-89
2023/05/17 10:07:31;;;;;;;6.35;2.58;;;;;;;;;;5138575;28;20051;-89
2023/05/17 10:09:58;;;;;;;9.48;2.58;;;;;;;;;;5137579;28;20102;-88
2023/05/17 10:12:28;;;;;;;8.45;3.72;;;;;;;;;;5138412;27;20015;-88
2023/05/17 10:14:55;;;;;;;8.60;2.72;;;;;;;;;;5137137;28;20031;-89
2023/05/17 10:17:25;;;;;;;8.48;2.67;;;;;;;;;;5138375;27;20040;-83
2023/05/17 10:19:52;;;;;;;7.28;2.88;;;;;;;;;;5137030;28;20100;-89
2023/05/17 10:22:18;;;;;;;9.43;2.65;;;;;;;;;;5138425;28;20312;-89
2023/05/17 10:24:47;;;;;;;7.43;2.80;;;;;;;;;;5111486;28;20040;-90
2023/05/17 10:27:14;;;;;;;9.82;2.65;;;;;;;;;;5114385;28;20360;-89
2023/05/17 10:29:41;;;;;;;9.20;3.72;;;;;;;;;;5117786;28;20024;-89
2023/05/17 10:32:08;;;;;;;7.72;2.95;;;;;;;;;;5120449;28;20024;-89
2023/05/17 10:34:35;;;;;;;6.63;3.13;;;;;;;;;;5121559;28;20042;-89
2023/05/17 10:37:01;;;;;;;6.85;2.78;;;;;;;;;;5121301;28;20028;-90
2023/05/17 10:39:27;;;;;;;8.95;2.85;;;;;;;;;;5116719;28;20023;-89
2023/05/17 10:41:55;;;;;;;6.38;2.55;;;;;;;;;;5121396;28;20031;-89
2023/05/17 10:44:21;;;;;;;7.38;3.42;;;;;;;;;;5119697;28;20032;-83
2023/05/17 10:46:51;;;;;;;8.27;2.60;;;;;;;;;;5120745;28;20325;-83
2023/05/17 10:49:17;;;;;;;8.20;3.17;;;;;;;;;;5120620;27;20027;-83
2023/05/17 10:51:45;;;;;;;9.00;2.53;;;;;;;;;;5119783;28;20035;-83
2023/05/17 10:54:12;;;;;;;6.93;2.13;;;;;;;;;;5120442;28;20122;-83
2023/05/17 10:56:46;;;;;;;4.32;2.20;;;;;;;;;;5120508;28;20028;-84
2023/05/17 10:59:20;;;;;;;8.13;2.38;;;;;;;;;;5116900;28;20041;-82
2023/05/17 11:02:02;;;;;;;6.55;1.90;;;;;;;;;;5101297;28;20044;-84
2023/05/17 11:04:33;;;;;;;5.68;2.22;;;;;;;;;;5105789;28;20031;-81
2023/05/17 11:07:28;;;;;;;7.13;2.03;;;;;;;;;;5120365;28;20039;-81
2023/05/17 11:09:55;;;;;;;6.28;2.00;;;;;;;;;;5120225;28;20016;-80
2023/05/17 11:12:30;;;;;;;7.60;1.90;;;;;;;;;;5120482;28;20024;-81
2023/05/17 11:14:56;;;;;;;2.60;1.55;;;;;;;;;;5119869;28;20059;-81
2023/05/17 11:17:26;;;;;;;6.30;2.08;;;;;;;;;;5119123;28;20055;-81
2023/05/17 11:19:55;;;;;;;5.93;2.25;;;;;;;;;;5120113;28;20032;-81
2023/05/17 11:22:26;;;;;;;6.38;2.75;;;;;;;;;;5120040;28;20042;-81
2023/05/17 11:24:53;;;;;;;8.00;2.40;;;;;;;;;;5119858;28;20062;-80
2023/05/17 11:27:26;;;;;;;8.35;2.38;;;;;;;;;;5116536;28;20069;-81
2023/05/17 11:29:57;;;;;;;7.38;1.90;;;;;;;;;;5108915;28;20032;-80
2023/05/17 11:32:30;;;;;;;8.77;2.10;;;;;;;;;;5120200;27;20015;-81
2023/05/17 11:34:59;;;;;;;8.32;1.75;;;;;;;;;;5118709;28;20031;-80
2023/05/17 11:37:26;;;;;;;6.20;1.63;;;;;;;;;;5120044;28;20035;-81
2023/05/17 11:40:04;;;;;;;6.72;1.88;;;;;;;;;;5119517;28;20115;-81
2023/05/17 11:42:30;;;;;;;6.22;1.80;;;;;;;;;;5115077;28;20038;-80
2023/05/17 11:44:57;;;;;;;6.00;2.42;;;;;;;;;;5118254;28;20028;-80
2023/05/17 11:47:23;;;;;;;6.07;3.17;;;;;;;;;;5106915;28;20413;-80
2023/05/17 11:49:51;;;;;;;9.30;4.18;;;;;;;;;;5119476;28;20059;-80
2023/05/17 11:52:17;;;;;;;4.55;1.65;;;;;;;;;;5115225;28;20042;-80
2023/05/17 11:54:44;;;;;;;8.32;2.30;;;;;;;;;;5119094;28;20055;-80
2023/05/17 11:57:13;;;;;;;6.50;1.98;;;;;;;;;;5119120;28;20023;-81
2023/05/17 11:59:39;;;;;;;5.47;1.65;;;;;;;;;;5119274;28;20027;-81
2023/05/17 12:02:08;;;;;;;7.82;2.05;;;;;;;;;;5118064;28;20027;-88
2023/05/17 12:04:37;;;;;;;5.13;1.58;;;;;;;;;;5119836;28;20055;-85
2023/05/17 12:07:04;;;;;;;5.28;1.77;;;;;;;;;;5118956;28;20039;-80
2023/05/17 12:09:30;;;;;;;5.78;2.63;;;;;;;;;;5112976;27;20065;-80
2023/05/17 12:11:58;;;;;;;4.60;1.65;;;;;;;;;;5118069;28;20023;-80
2023/05/17 12:14:24;;;;;;;5.57;1.50;;;;;;;;;;5115117;27;20049;-88
2023/05/17 12:16:52;;;;;;;6.05;1.70;;;;;;;;;;5100790;28;20361;-85
2023/05/17 12:19:23;;;;;;;7.18;1.88;;;;;;;;;;5115914;28;20024;-85
2023/05/17 12:21:50;;;;;;;7.78;2.08;;;;;;;;;;5113240;28;20417;-85
2023/05/17 12:24:16;;;;;;;7.78;1.80;;;;;;;;;;5119057;28;20043;-87
2023/05/17 12:26:45;;;;;;;7.20;1.63;;;;;;;;;;5118939;28;20057;-86
2023/05/17 12:29:16;;;;;;;4.38;1.60;;;;;;;;;;5111253;28;20107;-86
2023/05/17 12:31:52;;;;;;;7.43;2.00;;;;;;;;;;5106138;28;20040;-82
2023/05/17 12:34:19;;;;;;;6.72;1.70;;;;;;;;;;5115684;27;20068;-80
2023/05/17 12:36:45;;;;;;;6.50;1.90;;;;;;;;;;5098163;28;20031;-80
2023/05/17 12:39:12;;;;;;;7.50;1.95;;;;;;;;;;5114630;28;20023;-80
2023/05/17 12:41:39;;;;;;;5.90;1.50;;;;;;;;;;5103237;28;20410;-80
2023/05/17 12:44:07;;;;;;;10.55;1.92;;;;;;;;;;5101963;28;20028;-80
2023/05/17 12:46:34;;;;;;;13.77;3.83;;;;;;;;;;5097971;28;20032;-81
2023/05/17 12:49:09;;;;;;;8.68;2.50;;;;;;;;;;5103880;28;20110;-81
2023/05/17 12:51:42;;;;;;;13.07;3.63;;;;;;;;;;5099099;28;20425;-81
2023/05/17 12:54:08;;;;;;;11.50;3.47;;;;;;;;;;5097119;28;20051;-80
2023/05/17 12:56:34;;;;;;;11.52;2.70;;;;;;;;;;5104134;28;20047;-80
2023/05/17 12:59:05;;;;;;;8.63;2.67;;;;;;;;;;5115254;28;20038;-80
2023/05/17 13:01:34;;;;;;;26.50;19.95;;;;;;;;;;5101468;28;20032;-81
2023/05/17 13:04:00;;;;;;;145.63;97.88;;;;;;;;;;5098214;28;20030;-81
2023/05/17 13:06:27;;;;;;;10.70;3.97;;;;;;;;;;5111463;28;20027;-82
2023/05/17 13:08:59;;;;;;;4.82;2.40;;;;;;;;;;5114675;28;20068;-81
2023/05/17 13:11:25;;;;;;;6.68;2.15;;;;;;;;;;5106417;28;20015;-82
2023/05/17 13:13:51;;;;;;;6.78;2.30;;;;;;;;;;5118228;28;20027;-82
2023/05/17 13:16:27;;;;;;;8.70;2.63;;;;;;;;;;5102345;28;20140;-81
2023/05/17 13:18:54;;;;;;;7.10;2.22;;;;;;;;;;5097743;28;20032;-82
2023/05/17 13:21:20;;;;;;;14.05;8.35;;;;;;;;;;5097762;28;20317;-80
2023/05/17 13:23:47;;;;;;;6.47;2.97;;;;;;;;;;5112956;28;20111;-82
2023/05/17 13:26:14;;;;;;;7.35;2.67;;;;;;;;;;5107949;28;20012;-82
2023/05/17 13:28:40;;;;;;;6.93;2.47;;;;;;;;;;5114098;28;20444;-83
2023/05/17 13:31:06;;;;;;;6.60;1.98;;;;;;;;;;5100372;28;20117;-80
2023/05/17 13:33:32;;;;;;;6.40;2.47;;;;;;;;;;5097355;28;20104;-82
2023/05/17 13:35:58;;;;;;;6.03;1.73;;;;;;;;;;5097157;28;20067;-82
2023/05/17 13:38:25;;;;;;;5.50;2.13;;;;;;;;;;5108703;28;20044;-82
2023/05/17 13:40:51;;;;;;;10.73;2.05;;;;;;;;;;5104956;28;20425;-81
2023/05/17 13:43:17;;;;;;;9.57;2.28;;;;;;;;;;5117482;28;20027;-80
2023/05/17 13:45:49;;;;;;;7.03;2.08;;;;;;;;;;5103455;28;20024;-81
2023/05/17 13:48:15;;;;;;;5.32;2.40;;;;;;;;;;5117163;28;20348;-77
2023/05/17 13:50:41;;;;;;;7.97;2.10;;;;;;;;;;5117421;28;20279;-82
2023/05/17 13:53:07;;;;;;;9.00;2.15;;;;;;;;;;5117586;27;20020;-82
2023/05/17 13:55:34;;;;;;;5.78;1.88;;;;;;;;;;5116736;28;20024;-82
2023/05/17 13:58:00;;;;;;;5.50;1.80;;;;;;;;;;5116509;28;20047;-81
2023/05/17 14:00:26;;;;;;;6.95;1.60;;;;;;;;;;5116092;28;20028;-82
2023/05/17 14:02:52;;;;;;;7.72;2.00;;;;;;;;;;5116326;28;20023;-82
2023/05/17 14:05:18;;;;;;;6.57;2.25;;;;;;;;;;5117563;28;20062;-82
2023/05/17 14:07:45;;;;;;;6.70;2.13;;;;;;;;;;5120565;28;20047;-82
2023/05/17 14:10:11;;;;;;;5.28;2.10;;;;;;;;;;5121490;28;20030;-82
2023/05/17 14:12:38;;;;;;;4.53;2.00;;;;;;;;;;5121431;28;20016;-82
2023/05/17 14:15:04;;;;;;;7.15;1.83;;;;;;;;;;5121582;28;20415;-82
2023/05/17 14:17:31;;;;;;;4.93;1.83;;;;;;;;;;5121464;28;20028;-82
2023/05/17 14:19:58;;;;;;;5.57;2.00;;;;;;;;;;5120634;28;20340;-88
2023/05/17 14:22:24;;;;;;;5.63;1.70;;;;;;;;;;5120297;28;20038;-82
2023/05/17 14:24:52;;;;;;;5.90;1.90;;;;;;;;;;5102396;28;20038;-82
2023/05/17 14:27:18;;;;;;;10.05;2.45;;;;;;;;;;5099658;28;20017;-81
2023/05/17 14:29:44;;;;;;;11.55;2.45;;;;;;;;;;5100636;28;20035;-82
2023/05/17 14:32:12;;;;;;;6.32;2.00;;;;;;;;;;5100958;28;20012;-81
2023/05/17 14:34:38;;;;;;;7.82;2.10;;;;;;;;;;5100639;28;20144;-82
2023/05/17 14:37:05;;;;;;;5.78;2.13;;;;;;;;;;5100668;28;20337;-82
2023/05/17 14:39:31;;;;;;;6.82;2.17;;;;;;;;;;5099677;28;20020;-83
2023/05/17 14:41:57;;;;;;;7.28;2.35;;;;;;;;;;5100510;28;20020;-83
2023/05/17 14:44:23;;;;;;;5.88;1.90;;;;;;;;;;5101109;28;20028;-83
2023/05/17 14:46:49;;;;;;;7.80;2.15;;;;;;;;;;5116773;28;20154;-84
2023/05/17 14:49:15;;;;;;;6.15;2.08;;;;;;;;;;5120174;28;20027;-83
2023/05/17 14:51:41;;;;;;;5.57;2.58;;;;;;;;;;5107532;28;20032;-81
2023/05/17 14:54:07;;;;;;;10.40;3.00;;;;;;;;;;5101492;28;20062;-84
2023/05/17 14:56:34;;;;;;;10.20;2.72;;;;;;;;;;5100565;28;20115;-84
2023/05/17 14:59:00;;;;;;;6.00;2.72;;;;;;;;;;5100638;28;20044;-83
2023/05/17 15:01:26;;;;;;;9.38;2.53;;;;;;;;;;5099168;28;20024;-83
2023/05/17 15:03:52;;;;;;;10.05;2.42;;;;;;;;;;5100144;28;20028;-83